sensor_id;sensor_type;location;lat;lon;timestamp;P1;durP1;ratioP1;P2;durP2;ratioP2
27794;SDS011;15176;50.844;4.412;2022-11-20T00:00:57;45.55;;;21.83;;
27794;SDS011;15176;50.844;4.412;2022-11-20T00:03:30;47.30;;;21.85;;
27794;SDS011;15176;50.844;4.412;2022-11-20T00:05:59;46.00;;;22.80;;
27794;SDS011;15176;50.844;4.412;2022-11-20T00:08:26;46.17;;;22.40;;
27794;SDS011;15176;50.844;4.412;2022-11-20T00:10:51;41.35;;;22.00;;
27794;SDS011;15176;50.844;4.412;2022-11-20T00:13:17;51.40;;;23.30;;
27794;SDS011;15176;50.844;4.412;2022-11-20T00:15:43;42.13;;;20.40;;
27794;SDS011;15176;50.844;4.412;2022-11-20T00:18:08;42.95;;;21.88;;
27794;SDS011;15176;50.844;4.412;2022-11-20T00:20:34;40.40;;;21.58;;
27794;SDS011;15176;50.844;4.412;2022-11-20T00:23:00;43.88;;;21.85;;
27794;SDS011;15176;50.844;4.412;2022-11-20T00:25:25;44.50;;;20.20;;
27794;SDS011;15176;50.844;4.412;2022-11-20T00:27:51;41.63;;;21.75;;
27794;SDS011;15176;50.844;4.412;2022-11-20T00:30:17;42.75;;;22.10;;
27794;SDS011;15176;50.844;4.412;2022-11-20T00:32:43;45.63;;;22.10;;
27794;SDS011;15176;50.844;4.412;2022-11-20T00:35:09;44.63;;;23.08;;
27794;SDS011;15176;50.844;4.412;2022-11-20T00:37:35;42.05;;;22.90;;
27794;SDS011;15176;50.844;4.412;2022-11-20T00:40:00;42.97;;;22.10;;
27794;SDS011;15176;50.844;4.412;2022-11-20T00:42:26;42.35;;;22.20;;
27794;SDS011;15176;50.844;4.412;2022-11-20T00:44:52;43.78;;;21.75;;
27794;SDS011;15176;50.844;4.412;2022-11-20T00:47:17;45.83;;;21.73;;
27794;SDS011;15176;50.844;4.412;2022-11-20T00:49:43;46.47;;;22.48;;
27794;SDS011;15176;50.844;4.412;2022-11-20T00:52:09;41.00;;;21.75;;
27794;SDS011;15176;50.844;4.412;2022-11-20T00:54:34;40.70;;;22.40;;
27794;SDS011;15176;50.844;4.412;2022-11-20T00:57:00;42.42;;;22.40;;
27794;SDS011;15176;50.844;4.412;2022-11-20T00:59:26;43.80;;;21.63;;
27794;SDS011;15176;50.844;4.412;2022-11-20T01:01:51;43.20;;;21.85;;
27794;SDS011;15176;50.844;4.412;2022-11-20T01:04:17;43.13;;;22.60;;
27794;SDS011;15176;50.844;4.412;2022-11-20T01:06:44;43.20;;;21.65;;
27794;SDS011;15176;50.844;4.412;2022-11-20T01:09:10;39.58;;;21.48;;
27794;SDS011;15176;50.844;4.412;2022-11-20T01:11:39;42.90;;;21.42;;
27794;SDS011;15176;50.844;4.412;2022-11-20T01:14:07;39.05;;;20.85;;
27794;SDS011;15176;50.844;4.412;2022-11-20T01:16:37;42.53;;;21.88;;
27794;SDS011;15176;50.844;4.412;2022-11-20T01:19:06;38.88;;;22.27;;
27794;SDS011;15176;50.844;4.412;2022-11-20T01:21:35;40.97;;;21.92;;
27794;SDS011;15176;50.844;4.412;2022-11-20T01:24:03;42.33;;;22.83;;
27794;SDS011;15176;50.844;4.412;2022-11-20T01:26:31;42.25;;;22.02;;
27794;SDS011;15176;50.844;4.412;2022-11-20T01:28:59;42.97;;;21.92;;
27794;SDS011;15176;50.844;4.412;2022-11-20T01:31:27;43.50;;;22.45;;
27794;SDS011;15176;50.844;4.412;2022-11-20T01:33:59;43.15;;;22.45;;
27794;SDS011;15176;50.844;4.412;2022-11-20T01:36:27;42.60;;;23.17;;
27794;SDS011;15176;50.844;4.412;2022-11-20T01:38:55;42.45;;;21.75;;
27794;SDS011;15176;50.844;4.412;2022-11-20T01:41:23;45.97;;;21.77;;
27794;SDS011;15176;50.844;4.412;2022-11-20T01:44:09;41.80;;;22.33;;
27794;SDS011;15176;50.844;4.412;2022-11-20T01:46:42;41.78;;;21.88;;
27794;SDS011;15176;50.844;4.412;2022-11-20T01:49:26;41.83;;;21.40;;
27794;SDS011;15176;50.844;4.412;2022-11-20T01:52:10;45.58;;;23.85;;
27794;SDS011;15176;50.844;4.412;2022-11-20T01:54:44;45.25;;;23.10;;
27794;SDS011;15176;50.844;4.412;2022-11-20T01:57:22;42.67;;;22.08;;
27794;SDS011;15176;50.844;4.412;2022-11-20T01:59:52;39.20;;;21.63;;
27794;SDS011;15176;50.844;4.412;2022-11-20T02:02:24;42.17;;;21.95;;
27794;SDS011;15176;50.844;4.412;2022-11-20T02:04:50;43.33;;;22.08;;
27794;SDS011;15176;50.844;4.412;2022-11-20T02:07:19;44.75;;;21.60;;
27794;SDS011;15176;50.844;4.412;2022-11-20T02:09:46;41.80;;;21.23;;
27794;SDS011;15176;50.844;4.412;2022-11-20T02:12:12;40.15;;;22.75;;
27794;SDS011;15176;50.844;4.412;2022-11-20T02:14:58;41.55;;;21.40;;
27794;SDS011;15176;50.844;4.412;2022-11-20T02:17:24;43.17;;;22.55;;
27794;SDS011;15176;50.844;4.412;2022-11-20T02:19:50;42.13;;;22.45;;
27794;SDS011;15176;50.844;4.412;2022-11-20T02:22:25;50.33;;;23.17;;
27794;SDS011;15176;50.844;4.412;2022-11-20T02:24:56;43.72;;;22.23;;
27794;SDS011;15176;50.844;4.412;2022-11-20T02:27:25;42.55;;;22.52;;
27794;SDS011;15176;50.844;4.412;2022-11-20T02:32:21;46.17;;;23.42;;
27794;SDS011;15176;50.844;4.412;2022-11-20T02:34:47;44.38;;;22.92;;
27794;SDS011;15176;50.844;4.412;2022-11-20T02:37:13;37.35;;;19.52;;
27794;SDS011;15176;50.844;4.412;2022-11-20T02:39:39;40.60;;;20.73;;
27794;SDS011;15176;50.844;4.412;2022-11-20T02:42:06;39.30;;;21.30;;
27794;SDS011;15176;50.844;4.412;2022-11-20T02:44:32;32.30;;;14.90;;
27794;SDS011;15176;50.844;4.412;2022-11-20T02:46:58;34.25;;;18.52;;
27794;SDS011;15176;50.844;4.412;2022-11-20T02:49:24;43.78;;;20.48;;
27794;SDS011;15176;50.844;4.412;2022-11-20T02:51:50;37.38;;;20.05;;
27794;SDS011;15176;50.844;4.412;2022-11-20T02:54:16;36.85;;;19.02;;
27794;SDS011;15176;50.844;4.412;2022-11-20T02:56:41;38.17;;;19.38;;
27794;SDS011;15176;50.844;4.412;2022-11-20T02:59:08;36.60;;;19.98;;
27794;SDS011;15176;50.844;4.412;2022-11-20T03:01:34;39.97;;;20.05;;
27794;SDS011;15176;50.844;4.412;2022-11-20T03:04:00;33.63;;;16.52;;
27794;SDS011;15176;50.844;4.412;2022-11-20T03:06:26;36.50;;;19.10;;
27794;SDS011;15176;50.844;4.412;2022-11-20T03:08:52;39.92;;;19.55;;
27794;SDS011;15176;50.844;4.412;2022-11-20T03:11:18;38.35;;;18.95;;
27794;SDS011;15176;50.844;4.412;2022-11-20T03:13:44;39.85;;;18.95;;
27794;SDS011;15176;50.844;4.412;2022-11-20T03:16:11;36.78;;;18.02;;
27794;SDS011;15176;50.844;4.412;2022-11-20T03:18:39;30.30;;;14.43;;
27794;SDS011;15176;50.844;4.412;2022-11-20T03:21:06;31.63;;;15.57;;
27794;SDS011;15176;50.844;4.412;2022-11-20T03:23:33;31.15;;;14.93;;
27794;SDS011;15176;50.844;4.412;2022-11-20T03:28:49;29.33;;;13.75;;
27794;SDS011;15176;50.844;4.412;2022-11-20T03:31:23;30.27;;;13.93;;
27794;SDS011;15176;50.844;4.412;2022-11-20T03:33:51;29.17;;;14.43;;
27794;SDS011;15176;50.844;4.412;2022-11-20T03:36:17;30.02;;;15.30;;
27794;SDS011;15176;50.844;4.412;2022-11-20T03:38:44;30.85;;;15.15;;
27794;SDS011;15176;50.844;4.412;2022-11-20T03:41:12;30.17;;;16.27;;
27794;SDS011;15176;50.844;4.412;2022-11-20T03:46:15;32.35;;;15.13;;
27794;SDS011;15176;50.844;4.412;2022-11-20T03:48:41;37.45;;;17.50;;
27794;SDS011;15176;50.844;4.412;2022-11-20T03:51:11;39.45;;;18.85;;
27794;SDS011;15176;50.844;4.412;2022-11-20T03:53:42;34.45;;;17.48;;
27794;SDS011;15176;50.844;4.412;2022-11-20T03:56:10;39.03;;;18.25;;
27794;SDS011;15176;50.844;4.412;2022-11-20T03:58:37;35.78;;;18.45;;
27794;SDS011;15176;50.844;4.412;2022-11-20T04:01:08;28.88;;;14.98;;
27794;SDS011;15176;50.844;4.412;2022-11-20T04:03:35;43.05;;;19.95;;
27794;SDS011;15176;50.844;4.412;2022-11-20T04:06:03;39.25;;;17.75;;
27794;SDS011;15176;50.844;4.412;2022-11-20T04:08:33;38.08;;;17.65;;
27794;SDS011;15176;50.844;4.412;2022-11-20T04:13:59;37.42;;;18.10;;
27794;SDS011;15176;50.844;4.412;2022-11-20T04:16:28;41.60;;;19.27;;
27794;SDS011;15176;50.844;4.412;2022-11-20T04:18:56;42.42;;;19.45;;
27794;SDS011;15176;50.844;4.412;2022-11-20T04:21:23;39.85;;;19.05;;
27794;SDS011;15176;50.844;4.412;2022-11-20T04:23:51;38.42;;;17.13;;
27794;SDS011;15176;50.844;4.412;2022-11-20T04:26:20;38.00;;;19.30;;
27794;SDS011;15176;50.844;4.412;2022-11-20T04:28:47;44.20;;;21.08;;
27794;SDS011;15176;50.844;4.412;2022-11-20T04:31:15;38.70;;;19.33;;
27794;SDS011;15176;50.844;4.412;2022-11-20T04:33:42;46.83;;;20.38;;
27794;SDS011;15176;50.844;4.412;2022-11-20T04:36:17;41.55;;;19.73;;
27794;SDS011;15176;50.844;4.412;2022-11-20T04:38:45;42.97;;;19.48;;
27794;SDS011;15176;50.844;4.412;2022-11-20T04:41:16;44.25;;;20.08;;
27794;SDS011;15176;50.844;4.412;2022-11-20T04:43:50;50.97;;;22.02;;
27794;SDS011;15176;50.844;4.412;2022-11-20T04:46:18;43.30;;;20.52;;
27794;SDS011;15176;50.844;4.412;2022-11-20T04:48:45;47.03;;;22.42;;
27794;SDS011;15176;50.844;4.412;2022-11-20T04:51:11;47.83;;;21.48;;
27794;SDS011;15176;50.844;4.412;2022-11-20T04:53:37;48.80;;;21.08;;
27794;SDS011;15176;50.844;4.412;2022-11-20T04:56:04;44.53;;;21.63;;
27794;SDS011;15176;50.844;4.412;2022-11-20T04:58:32;51.83;;;22.65;;
27794;SDS011;15176;50.844;4.412;2022-11-20T05:03:54;45.75;;;21.38;;
27794;SDS011;15176;50.844;4.412;2022-11-20T05:06:20;52.03;;;22.20;;
27794;SDS011;15176;50.844;4.412;2022-11-20T05:08:46;48.70;;;20.90;;
27794;SDS011;15176;50.844;4.412;2022-11-20T05:11:13;48.65;;;20.65;;
27794;SDS011;15176;50.844;4.412;2022-11-20T05:13:44;45.53;;;20.88;;
27794;SDS011;15176;50.844;4.412;2022-11-20T05:16:15;52.88;;;22.17;;
27794;SDS011;15176;50.844;4.412;2022-11-20T05:18:42;53.38;;;22.23;;
27794;SDS011;15176;50.844;4.412;2022-11-20T05:21:08;48.92;;;21.70;;
27794;SDS011;15176;50.844;4.412;2022-11-20T05:23:35;54.03;;;23.40;;
27794;SDS011;15176;50.844;4.412;2022-11-20T05:26:02;51.33;;;21.95;;
27794;SDS011;15176;50.844;4.412;2022-11-20T05:28:28;50.65;;;23.00;;
27794;SDS011;15176;50.844;4.412;2022-11-20T05:30:55;45.53;;;21.23;;
27794;SDS011;15176;50.844;4.412;2022-11-20T05:33:21;49.72;;;21.40;;
27794;SDS011;15176;50.844;4.412;2022-11-20T05:35:47;51.10;;;22.35;;
27794;SDS011;15176;50.844;4.412;2022-11-20T05:38:13;48.20;;;21.65;;
27794;SDS011;15176;50.844;4.412;2022-11-20T05:40:39;50.38;;;22.95;;
27794;SDS011;15176;50.844;4.412;2022-11-20T05:43:05;51.35;;;23.45;;
27794;SDS011;15176;50.844;4.412;2022-11-20T05:45:30;51.90;;;23.42;;
27794;SDS011;15176;50.844;4.412;2022-11-20T05:47:59;52.55;;;23.45;;
27794;SDS011;15176;50.844;4.412;2022-11-20T05:50:26;52.13;;;23.80;;
27794;SDS011;15176;50.844;4.412;2022-11-20T05:52:52;51.13;;;22.83;;
27794;SDS011;15176;50.844;4.412;2022-11-20T05:55:18;50.92;;;21.67;;
27794;SDS011;15176;50.844;4.412;2022-11-20T05:57:45;51.75;;;23.52;;
27794;SDS011;15176;50.844;4.412;2022-11-20T06:00:11;50.05;;;22.67;;
27794;SDS011;15176;50.844;4.412;2022-11-20T06:02:37;49.88;;;22.30;;
27794;SDS011;15176;50.844;4.412;2022-11-20T06:05:05;56.67;;;22.75;;
27794;SDS011;15176;50.844;4.412;2022-11-20T06:07:31;51.70;;;22.85;;
27794;SDS011;15176;50.844;4.412;2022-11-20T06:09:56;56.63;;;23.17;;
27794;SDS011;15176;50.844;4.412;2022-11-20T06:12:22;49.63;;;20.23;;
27794;SDS011;15176;50.844;4.412;2022-11-20T06:14:47;52.25;;;22.05;;
27794;SDS011;15176;50.844;4.412;2022-11-20T06:17:13;45.47;;;18.80;;
27794;SDS011;15176;50.844;4.412;2022-11-20T06:19:39;53.95;;;23.48;;
27794;SDS011;15176;50.844;4.412;2022-11-20T06:22:05;54.15;;;22.65;;
27794;SDS011;15176;50.844;4.412;2022-11-20T06:24:30;42.55;;;18.83;;
27794;SDS011;15176;50.844;4.412;2022-11-20T06:26:56;51.58;;;21.02;;
27794;SDS011;15176;50.844;4.412;2022-11-20T06:29:21;50.45;;;20.90;;
27794;SDS011;15176;50.844;4.412;2022-11-20T06:31:47;59.08;;;24.73;;
27794;SDS011;15176;50.844;4.412;2022-11-20T06:34:13;59.03;;;23.88;;
27794;SDS011;15176;50.844;4.412;2022-11-20T06:36:42;48.33;;;19.35;;
27794;SDS011;15176;50.844;4.412;2022-11-20T06:39:07;53.25;;;22.85;;
27794;SDS011;15176;50.844;4.412;2022-11-20T06:41:33;54.10;;;23.63;;
27794;SDS011;15176;50.844;4.412;2022-11-20T06:43:59;33.25;;;14.57;;
27794;SDS011;15176;50.844;4.412;2022-11-20T06:46:25;52.88;;;23.13;;
27794;SDS011;15176;50.844;4.412;2022-11-20T06:48:50;57.45;;;22.40;;
27794;SDS011;15176;50.844;4.412;2022-11-20T06:51:16;56.55;;;23.25;;
27794;SDS011;15176;50.844;4.412;2022-11-20T06:53:42;53.40;;;22.17;;
27794;SDS011;15176;50.844;4.412;2022-11-20T06:56:08;52.35;;;21.70;;
27794;SDS011;15176;50.844;4.412;2022-11-20T06:58:34;57.05;;;24.20;;
27794;SDS011;15176;50.844;4.412;2022-11-20T07:01:01;54.65;;;22.30;;
27794;SDS011;15176;50.844;4.412;2022-11-20T07:03:31;58.15;;;23.25;;
27794;SDS011;15176;50.844;4.412;2022-11-20T07:05:57;62.10;;;24.00;;
27794;SDS011;15176;50.844;4.412;2022-11-20T07:08:25;49.70;;;20.92;;
27794;SDS011;15176;50.844;4.412;2022-11-20T07:10:52;42.97;;;17.77;;
27794;SDS011;15176;50.844;4.412;2022-11-20T07:13:22;54.72;;;22.80;;
27794;SDS011;15176;50.844;4.412;2022-11-20T07:15:50;41.40;;;18.30;;
27794;SDS011;15176;50.844;4.412;2022-11-20T07:18:16;54.25;;;22.85;;
27794;SDS011;15176;50.844;4.412;2022-11-20T07:20:42;47.95;;;19.70;;
27794;SDS011;15176;50.844;4.412;2022-11-20T07:23:09;48.00;;;21.02;;
27794;SDS011;15176;50.844;4.412;2022-11-20T07:25:40;41.63;;;18.25;;
27794;SDS011;15176;50.844;4.412;2022-11-20T07:28:06;42.45;;;18.20;;
27794;SDS011;15176;50.844;4.412;2022-11-20T07:30:32;51.17;;;21.77;;
27794;SDS011;15176;50.844;4.412;2022-11-20T07:33:00;55.35;;;23.08;;
27794;SDS011;15176;50.844;4.412;2022-11-20T07:35:35;48.33;;;20.27;;
27794;SDS011;15176;50.844;4.412;2022-11-20T07:38:00;50.10;;;20.65;;
27794;SDS011;15176;50.844;4.412;2022-11-20T07:40:26;56.05;;;23.05;;
27794;SDS011;15176;50.844;4.412;2022-11-20T07:42:54;58.88;;;23.85;;
27794;SDS011;15176;50.844;4.412;2022-11-20T07:45:20;51.42;;;22.40;;
27794;SDS011;15176;50.844;4.412;2022-11-20T07:47:48;57.25;;;23.08;;
27794;SDS011;15176;50.844;4.412;2022-11-20T07:50:16;47.17;;;19.33;;
27794;SDS011;15176;50.844;4.412;2022-11-20T07:52:42;52.70;;;21.92;;
27794;SDS011;15176;50.844;4.412;2022-11-20T07:55:08;55.95;;;23.00;;
27794;SDS011;15176;50.844;4.412;2022-11-20T07:57:35;57.90;;;24.02;;
27794;SDS011;15176;50.844;4.412;2022-11-20T08:00:01;60.70;;;23.95;;
27794;SDS011;15176;50.844;4.412;2022-11-20T08:02:28;54.63;;;22.70;;
27794;SDS011;15176;50.844;4.412;2022-11-20T08:04:54;47.10;;;20.60;;
27794;SDS011;15176;50.844;4.412;2022-11-20T08:07:20;62.28;;;23.25;;
27794;SDS011;15176;50.844;4.412;2022-11-20T08:09:45;59.63;;;24.08;;
27794;SDS011;15176;50.844;4.412;2022-11-20T08:12:18;44.40;;;18.80;;
27794;SDS011;15176;50.844;4.412;2022-11-20T08:15:04;59.20;;;22.65;;
27794;SDS011;15176;50.844;4.412;2022-11-20T08:17:30;53.80;;;21.42;;
27794;SDS011;15176;50.844;4.412;2022-11-20T08:19:56;55.10;;;21.40;;
27794;SDS011;15176;50.844;4.412;2022-11-20T08:22:22;36.97;;;15.98;;
27794;SDS011;15176;50.844;4.412;2022-11-20T08:24:49;56.20;;;21.75;;
27794;SDS011;15176;50.844;4.412;2022-11-20T08:27:15;49.13;;;20.27;;
27794;SDS011;15176;50.844;4.412;2022-11-20T08:29:41;43.90;;;18.77;;
27794;SDS011;15176;50.844;4.412;2022-11-20T08:32:07;48.70;;;20.75;;
27794;SDS011;15176;50.844;4.412;2022-11-20T08:34:33;59.90;;;22.13;;
27794;SDS011;15176;50.844;4.412;2022-11-20T08:37:01;44.30;;;20.20;;
27794;SDS011;15176;50.844;4.412;2022-11-20T08:39:27;56.05;;;21.42;;
27794;SDS011;15176;50.844;4.412;2022-11-20T08:41:53;44.60;;;18.10;;
27794;SDS011;15176;50.844;4.412;2022-11-20T08:44:19;51.72;;;20.02;;
27794;SDS011;15176;50.844;4.412;2022-11-20T08:46:44;40.25;;;15.88;;
27794;SDS011;15176;50.844;4.412;2022-11-20T08:49:12;52.75;;;22.52;;
27794;SDS011;15176;50.844;4.412;2022-11-20T08:51:39;55.22;;;22.00;;
27794;SDS011;15176;50.844;4.412;2022-11-20T08:54:06;55.13;;;20.38;;
27794;SDS011;15176;50.844;4.412;2022-11-20T08:56:33;42.60;;;18.17;;
27794;SDS011;15176;50.844;4.412;2022-11-20T08:58:59;52.35;;;19.90;;
27794;SDS011;15176;50.844;4.412;2022-11-20T09:01:25;49.97;;;20.15;;
27794;SDS011;15176;50.844;4.412;2022-11-20T09:03:51;43.80;;;18.40;;
27794;SDS011;15176;50.844;4.412;2022-11-20T09:06:17;46.05;;;18.67;;
27794;SDS011;15176;50.844;4.412;2022-11-20T09:08:43;54.30;;;20.85;;
27794;SDS011;15176;50.844;4.412;2022-11-20T09:11:09;36.63;;;16.20;;
27794;SDS011;15176;50.844;4.412;2022-11-20T09:13:35;43.58;;;19.38;;
27794;SDS011;15176;50.844;4.412;2022-11-20T09:16:05;48.97;;;18.63;;
27794;SDS011;15176;50.844;4.412;2022-11-20T09:18:32;41.08;;;17.77;;
27794;SDS011;15176;50.844;4.412;2022-11-20T09:21:10;48.92;;;18.98;;
27794;SDS011;15176;50.844;4.412;2022-11-20T09:23:37;42.10;;;18.05;;
27794;SDS011;15176;50.844;4.412;2022-11-20T09:28:31;46.60;;;19.92;;
27794;SDS011;15176;50.844;4.412;2022-11-20T09:30:57;39.58;;;17.52;;
27794;SDS011;15176;50.844;4.412;2022-11-20T09:33:23;41.83;;;17.52;;
27794;SDS011;15176;50.844;4.412;2022-11-20T09:35:48;37.05;;;16.08;;
27794;SDS011;15176;50.844;4.412;2022-11-20T09:38:14;35.10;;;16.23;;
27794;SDS011;15176;50.844;4.412;2022-11-20T09:41:03;41.58;;;18.10;;
27794;SDS011;15176;50.844;4.412;2022-11-20T09:48:48;37.15;;;16.10;;
27794;SDS011;15176;50.844;4.412;2022-11-20T09:54:26;33.53;;;14.32;;
27794;SDS011;15176;50.844;4.412;2022-11-20T09:57:02;30.88;;;14.73;;
27794;SDS011;15176;50.844;4.412;2022-11-20T10:04:51;27.50;;;12.75;;
27794;SDS011;15176;50.844;4.412;2022-11-20T10:07:23;28.20;;;12.95;;
27794;SDS011;15176;50.844;4.412;2022-11-20T10:10:16;26.58;;;11.30;;
27794;SDS011;15176;50.844;4.412;2022-11-20T10:12:51;23.15;;;11.15;;
27794;SDS011;15176;50.844;4.412;2022-11-20T10:32:20;17.65;;;7.10;;
27794;SDS011;15176;50.844;4.412;2022-11-20T10:34:58;18.33;;;7.40;;
27794;SDS011;15176;50.844;4.412;2022-11-20T10:37:46;15.20;;;6.82;;
27794;SDS011;15176;50.844;4.412;2022-11-20T10:40:38;18.52;;;6.93;;
27794;SDS011;15176;50.844;4.412;2022-11-20T10:43:42;16.17;;;6.65;;
27794;SDS011;15176;50.844;4.412;2022-11-20T10:46:05;12.80;;;5.65;;
27794;SDS011;15176;50.844;4.412;2022-11-20T10:48:37;14.90;;;5.65;;
27794;SDS011;15176;50.844;4.412;2022-11-20T10:51:26;11.07;;;4.90;;
27794;SDS011;15176;50.844;4.412;2022-11-20T10:56:35;11.18;;;4.47;;
27794;SDS011;15176;50.844;4.412;2022-11-20T11:01:57;7.95;;;4.07;;
27794;SDS011;15176;50.844;4.412;2022-11-20T11:07:10;9.27;;;3.38;;
27794;SDS011;15176;50.844;4.412;2022-11-20T11:09:49;10.35;;;3.53;;
27794;SDS011;15176;50.844;4.412;2022-11-20T11:12:17;8.30;;;3.40;;
27794;SDS011;15176;50.844;4.412;2022-11-20T11:14:50;11.15;;;3.42;;
27794;SDS011;15176;50.844;4.412;2022-11-20T11:17:26;9.68;;;3.70;;
27794;SDS011;15176;50.844;4.412;2022-11-20T11:20:14;11.05;;;3.13;;
27794;SDS011;15176;50.844;4.412;2022-11-20T11:22:46;9.50;;;3.13;;
27794;SDS011;15176;50.844;4.412;2022-11-20T11:25:21;8.48;;;3.50;;
27794;SDS011;15176;50.844;4.412;2022-11-20T11:27:52;10.60;;;3.22;;
27794;SDS011;15176;50.844;4.412;2022-11-20T11:30:21;10.05;;;3.60;;
27794;SDS011;15176;50.844;4.412;2022-11-20T11:32:48;8.25;;;3.70;;
27794;SDS011;15176;50.844;4.412;2022-11-20T11:35:24;7.18;;;3.47;;
27794;SDS011;15176;50.844;4.412;2022-11-20T11:37:52;8.77;;;3.42;;
27794;SDS011;15176;50.844;4.412;2022-11-20T11:40:26;8.77;;;2.92;;
27794;SDS011;15176;50.844;4.412;2022-11-20T11:42:59;9.82;;;2.97;;
27794;SDS011;15176;50.844;4.412;2022-11-20T11:45:53;10.18;;;2.88;;
27794;SDS011;15176;50.844;4.412;2022-11-20T11:48:20;6.78;;;2.75;;
27794;SDS011;15176;50.844;4.412;2022-11-20T11:50:48;6.88;;;2.92;;
27794;SDS011;15176;50.844;4.412;2022-11-20T11:53:20;6.95;;;2.47;;
27794;SDS011;15176;50.844;4.412;2022-11-20T11:55:55;6.28;;;2.85;;
27794;SDS011;15176;50.844;4.412;2022-11-20T12:06:35;8.10;;;2.72;;
27794;SDS011;15176;50.844;4.412;2022-11-20T12:09:05;6.70;;;2.53;;
27794;SDS011;15176;50.844;4.412;2022-11-20T12:11:37;7.57;;;2.55;;
27794;SDS011;15176;50.844;4.412;2022-11-20T12:14:30;6.13;;;2.30;;
27794;SDS011;15176;50.844;4.412;2022-11-20T12:17:00;7.30;;;2.90;;
27794;SDS011;15176;50.844;4.412;2022-11-20T12:19:30;5.75;;;2.80;;
27794;SDS011;15176;50.844;4.412;2022-11-20T12:22:01;10.93;;;2.80;;
27794;SDS011;15176;50.844;4.412;2022-11-20T12:25:00;8.75;;;2.70;;
27794;SDS011;15176;50.844;4.412;2022-11-20T12:30:27;7.78;;;2.58;;
27794;SDS011;15176;50.844;4.412;2022-11-20T12:42:05;11.65;;;2.90;;
27794;SDS011;15176;50.844;4.412;2022-11-20T12:53:31;6.28;;;2.78;;
27794;SDS011;15176;50.844;4.412;2022-11-20T13:01:49;8.65;;;2.90;;
27794;SDS011;15176;50.844;4.412;2022-11-20T13:07:01;10.57;;;3.00;;
27794;SDS011;15176;50.844;4.412;2022-11-20T13:09:30;8.57;;;2.92;;
27794;SDS011;15176;50.844;4.412;2022-11-20T13:14:58;9.05;;;3.17;;
27794;SDS011;15176;50.844;4.412;2022-11-20T13:17:45;9.98;;;3.08;;
27794;SDS011;15176;50.844;4.412;2022-11-20T13:20:26;9.07;;;2.60;;
27794;SDS011;15176;50.844;4.412;2022-11-20T13:22:54;9.50;;;2.88;;
27794;SDS011;15176;50.844;4.412;2022-11-20T13:25:22;6.70;;;2.70;;
27794;SDS011;15176;50.844;4.412;2022-11-20T13:27:53;6.55;;;2.42;;
27794;SDS011;15176;50.844;4.412;2022-11-20T13:30:21;6.18;;;2.58;;
27794;SDS011;15176;50.844;4.412;2022-11-20T13:32:53;6.90;;;2.60;;
27794;SDS011;15176;50.844;4.412;2022-11-20T13:35:24;7.32;;;2.72;;
27794;SDS011;15176;50.844;4.412;2022-11-20T13:38:12;9.90;;;2.58;;
27794;SDS011;15176;50.844;4.412;2022-11-20T13:40:56;7.32;;;3.05;;
27794;SDS011;15176;50.844;4.412;2022-11-20T13:45:55;5.63;;;2.35;;
27794;SDS011;15176;50.844;4.412;2022-11-20T13:48:24;5.50;;;2.30;;
27794;SDS011;15176;50.844;4.412;2022-11-20T13:59:24;6.72;;;2.50;;
27794;SDS011;15176;50.844;4.412;2022-11-20T14:02:14;6.18;;;2.17;;
27794;SDS011;15176;50.844;4.412;2022-11-20T14:04:45;4.47;;;2.22;;
27794;SDS011;15176;50.844;4.412;2022-11-20T14:07:14;4.65;;;2.00;;
27794;SDS011;15176;50.844;4.412;2022-11-20T14:09:49;6.20;;;2.00;;
27794;SDS011;15176;50.844;4.412;2022-11-20T14:12:18;4.45;;;2.00;;
27794;SDS011;15176;50.844;4.412;2022-11-20T14:14:50;4.45;;;1.95;;
27794;SDS011;15176;50.844;4.412;2022-11-20T14:17:21;4.95;;;1.88;;
27794;SDS011;15176;50.844;4.412;2022-11-20T14:19:54;5.05;;;2.08;;
27794;SDS011;15176;50.844;4.412;2022-11-20T14:22:27;4.60;;;1.90;;
27794;SDS011;15176;50.844;4.412;2022-11-20T14:25:06;5.25;;;2.00;;
27794;SDS011;15176;50.844;4.412;2022-11-20T14:28:02;6.85;;;2.00;;
27794;SDS011;15176;50.844;4.412;2022-11-20T14:30:50;4.20;;;1.98;;
27794;SDS011;15176;50.844;4.412;2022-11-20T14:33:15;5.57;;;2.67;;
27794;SDS011;15176;50.844;4.412;2022-11-20T14:35:45;8.18;;;2.40;;
27794;SDS011;15176;50.844;4.412;2022-11-20T14:38:20;5.07;;;2.47;;
27794;SDS011;15176;50.844;4.412;2022-11-20T14:40:49;5.50;;;2.25;;
27794;SDS011;15176;50.844;4.412;2022-11-20T14:43:24;5.00;;;2.30;;
27794;SDS011;15176;50.844;4.412;2022-11-20T14:46:02;6.05;;;2.83;;
27794;SDS011;15176;50.844;4.412;2022-11-20T14:48:31;5.38;;;2.60;;
27794;SDS011;15176;50.844;4.412;2022-11-20T14:51:00;5.70;;;2.83;;
27794;SDS011;15176;50.844;4.412;2022-11-20T14:53:26;5.25;;;2.63;;
27794;SDS011;15176;50.844;4.412;2022-11-20T14:55:56;7.45;;;2.78;;
27794;SDS011;15176;50.844;4.412;2022-11-20T14:58:29;6.03;;;2.60;;
27794;SDS011;15176;50.844;4.412;2022-11-20T15:01:01;7.90;;;3.30;;
27794;SDS011;15176;50.844;4.412;2022-11-20T15:03:36;10.52;;;3.17;;
27794;SDS011;15176;50.844;4.412;2022-11-20T15:06:03;7.95;;;2.80;;
27794;SDS011;15176;50.844;4.412;2022-11-20T15:08:31;6.38;;;2.95;;
27794;SDS011;15176;50.844;4.412;2022-11-20T15:10:57;5.80;;;2.63;;
27794;SDS011;15176;50.844;4.412;2022-11-20T15:13:31;7.30;;;3.13;;
27794;SDS011;15176;50.844;4.412;2022-11-20T15:16:00;7.75;;;3.20;;
27794;SDS011;15176;50.844;4.412;2022-11-20T15:18:43;6.78;;;3.15;;
27794;SDS011;15176;50.844;4.412;2022-11-20T15:21:10;5.15;;;2.67;;
27794;SDS011;15176;50.844;4.412;2022-11-20T15:23:40;7.00;;;2.90;;
27794;SDS011;15176;50.844;4.412;2022-11-20T15:26:07;6.80;;;3.63;;
27794;SDS011;15176;50.844;4.412;2022-11-20T15:28:34;10.88;;;3.70;;
27794;SDS011;15176;50.844;4.412;2022-11-20T15:31:04;7.07;;;3.28;;
27794;SDS011;15176;50.844;4.412;2022-11-20T15:33:33;6.80;;;3.38;;
27794;SDS011;15176;50.844;4.412;2022-11-20T15:35:59;8.27;;;3.70;;
27794;SDS011;15176;50.844;4.412;2022-11-20T15:38:25;11.43;;;3.90;;
27794;SDS011;15176;50.844;4.412;2022-11-20T15:40:51;8.73;;;4.00;;
27794;SDS011;15176;50.844;4.412;2022-11-20T15:43:17;11.45;;;4.00;;
27794;SDS011;15176;50.844;4.412;2022-11-20T15:45:47;10.60;;;4.13;;
27794;SDS011;15176;50.844;4.412;2022-11-20T15:51:38;13.35;;;3.90;;
27794;SDS011;15176;50.844;4.412;2022-11-20T15:54:13;9.27;;;3.42;;
27794;SDS011;15176;50.844;4.412;2022-11-20T15:56:40;10.57;;;3.85;;
27794;SDS011;15176;50.844;4.412;2022-11-20T15:59:06;9.57;;;4.28;;
27794;SDS011;15176;50.844;4.412;2022-11-20T16:01:32;11.30;;;4.05;;
27794;SDS011;15176;50.844;4.412;2022-11-20T16:03:58;12.27;;;3.70;;
27794;SDS011;15176;50.844;4.412;2022-11-20T16:06:24;17.88;;;4.10;;
27794;SDS011;15176;50.844;4.412;2022-11-20T16:08:50;10.77;;;3.90;;
27794;SDS011;15176;50.844;4.412;2022-11-20T16:11:19;10.65;;;3.75;;
27794;SDS011;15176;50.844;4.412;2022-11-20T16:13:48;12.82;;;3.83;;
27794;SDS011;15176;50.844;4.412;2022-11-20T16:16:33;11.05;;;3.60;;
27794;SDS011;15176;50.844;4.412;2022-11-20T16:19:02;12.98;;;3.95;;
27794;SDS011;15176;50.844;4.412;2022-11-20T16:21:28;16.20;;;4.13;;
27794;SDS011;15176;50.844;4.412;2022-11-20T16:23:57;17.17;;;5.07;;
27794;SDS011;15176;50.844;4.412;2022-11-20T16:26:23;15.48;;;4.70;;
27794;SDS011;15176;50.844;4.412;2022-11-20T16:28:49;12.93;;;4.22;;
27794;SDS011;15176;50.844;4.412;2022-11-20T16:31:16;22.88;;;6.05;;